Time;durP1;ratioP1;P1;durP2;ratioP2;P2;SDS_P1;SDS_P2;PMS_P1;PMS_P2;Temp;Humidity;BMP_temperature;BMP_pressure;BME280_temperature;BME280_humidity;BME280_pressure;Samples;Min_cycle;Max_cycle;Signal;HPM_P1;HPM_P2
2022/10/24 00:00:30;;;;;;;50.50;28.55;;;19.80;99.90;;;;;;6370488;22;20081;-81
2022/10/24 00:02:56;;;;;;;53.40;25.38;;;19.80;99.90;;;;;;6369256;22;19998;-80
2022/10/24 00:05:22;;;;;;;45.88;26.40;;;19.80;99.90;;;;;;6370778;22;20048;-81
2022/10/24 00:07:49;;;;;;;48.25;29.20;;;19.80;99.90;;;;;;6342202;22;20033;-81
2022/10/24 00:10:15;;;;;;;51.85;26.00;;;19.80;99.90;;;;;;6371135;22;20002;-81
2022/10/24 00:12:41;;;;;;;54.95;27.35;;;19.80;99.90;;;;;;6371069;22;20124;-81
2022/10/24 00:15:07;;;;;;;53.72;27.83;;;19.80;99.90;;;;;;6370221;22;20005;-81
2022/10/24 00:17:33;;;;;;;67.55;29.92;;;19.80;99.90;;;;;;6370548;22;20009;-80
2022/10/24 00:19:59;;;;;;;62.67;28.65;;;19.70;99.90;;;;;;6370582;22;19995;-77
2022/10/24 00:22:26;;;;;;;52.92;28.38;;;19.60;99.90;;;;;;6370940;22;20002;-78
2022/10/24 00:24:52;;;;;;;56.47;27.65;;;19.60;99.90;;;;;;6370586;22;19990;-78
2022/10/24 00:27:18;;;;;;;69.32;31.02;;;19.60;99.90;;;;;;6370049;22;20036;-80
2022/10/24 00:29:44;;;;;;;76.65;31.92;;;19.60;99.90;;;;;;6370755;22;20006;-81
2022/10/24 00:32:10;;;;;;;54.00;25.58;;;19.50;99.90;;;;;;6370731;22;20006;-80
2022/10/24 00:34:36;;;;;;;53.15;26.35;;;19.50;99.90;;;;;;6370270;22;19999;-80
2022/10/24 00:37:03;;;;;;;52.55;25.48;;;19.60;99.90;;;;;;6369997;22;19998;-81
2022/10/24 00:39:29;;;;;;;54.33;26.42;;;19.70;99.90;;;;;;6342556;22;20028;-81
2022/10/24 00:41:57;;;;;;;51.30;25.65;;;19.70;99.90;;;;;;6370276;22;20002;-80
2022/10/24 00:44:29;;;;;;;55.13;26.40;;;19.70;99.90;;;;;;6342244;22;20017;-82
2022/10/24 00:47:09;;;;;;;58.60;26.95;;;19.80;99.90;;;;;;6370152;22;20002;-82
2022/10/24 00:50:00;;;;;;;57.45;28.45;;;19.80;99.90;;;;;;6370465;22;20003;-81
2022/10/24 00:52:33;;;;;;;55.92;27.17;;;19.70;99.90;;;;;;6370098;22;20052;-81
2022/10/24 00:55:01;;;;;;;46.83;24.40;;;19.70;99.90;;;;;;6370547;22;20002;-80
2022/10/24 00:57:52;;;;;;;48.83;23.52;;;19.80;99.90;;;;;;6370147;22;20064;-81
2022/10/24 01:00:24;;;;;;;54.42;26.08;;;19.80;99.90;;;;;;6370067;22;20006;-81
2022/10/24 01:02:50;;;;;;;61.63;28.15;;;19.80;99.90;;;;;;6369516;22;20419;-80
2022/10/24 01:05:17;;;;;;;57.03;25.30;;;19.80;99.90;;;;;;6370912;22;20022;-80
2022/10/24 01:07:46;;;;;;;56.58;27.00;;;19.70;99.90;;;;;;6369887;22;20026;-79
2022/10/24 01:10:37;;;;;;;60.60;27.05;;;19.70;99.90;;;;;;6370771;22;19998;-79
2022/10/24 01:13:30;;;;;;;69.53;31.05;;;19.70;99.90;;;;;;6369514;22;20028;-80
2022/10/24 01:16:02;;;;;;;65.22;31.95;;;19.70;99.90;;;;;;6369883;22;20370;-81
2022/10/24 01:18:35;;;;;;;70.43;32.78;;;19.60;99.90;;;;;;6370538;22;20033;-81
2022/10/24 01:21:23;;;;;;;65.97;30.40;;;19.50;99.90;;;;;;6370212;22;20052;-81
2022/10/24 01:24:10;;;;;;;60.78;29.33;;;19.50;99.90;;;;;;6370039;22;20022;-80
2022/10/24 01:26:44;;;;;;;56.60;29.02;;;19.50;99.90;;;;;;6369122;22;20007;-81
2022/10/24 01:29:39;;;;;;;51.25;25.65;;;19.50;99.90;;;;;;6369722;22;20069;-81
2022/10/24 01:32:05;;;;;;;43.28;24.50;;;19.60;99.90;;;;;;6369097;22;20080;-81
2022/10/24 01:34:41;;;;;;;52.33;27.98;;;19.70;99.90;;;;;;6369964;22;20002;-83
2022/10/24 01:37:35;;;;;;;67.55;31.55;;;19.70;99.90;;;;;;6368744;22;20315;-81
2022/10/24 01:40:26;;;;;;;54.95;31.60;;;19.70;99.90;;;;;;6369061;22;20041;-82
2022/10/24 01:42:55;;;;;;;69.82;31.20;;;19.70;99.90;;;;;;6340817;22;20059;-82
2022/10/24 01:45:29;;;;;;;54.80;27.23;;;19.70;99.90;;;;;;6369944;22;20329;-81
2022/10/24 01:47:57;;;;;;;55.08;28.98;;;19.70;99.90;;;;;;6369703;22;20301;-81
2022/10/24 01:50:24;;;;;;;56.17;29.35;;;19.70;99.90;;;;;;6369514;22;20002;-82
2022/10/24 01:52:53;;;;;;;61.22;30.42;;;19.70;99.90;;;;;;6370384;22;20006;-81
2022/10/24 01:55:19;;;;;;;59.22;29.10;;;19.70;99.90;;;;;;6369688;22;20073;-79
2022/10/24 01:57:44;;;;;;;66.40;32.55;;;19.60;99.90;;;;;;6369533;22;20029;-81
2022/10/24 02:00:17;;;;;;;69.72;30.90;;;19.60;99.90;;;;;;6368956;22;20044;-81
2022/10/24 02:02:48;;;;;;;48.67;26.83;;;19.60;99.90;;;;;;6369829;22;19994;-81
2022/10/24 02:05:19;;;;;;;45.92;25.50;;;19.60;99.90;;;;;;6341877;22;20076;-82
2022/10/24 02:07:49;;;;;;;49.03;25.25;;;19.70;99.90;;;;;;6369989;22;20002;-81
2022/10/24 02:10:31;;;;;;;59.65;29.10;;;19.70;99.90;;;;;;6369191;22;20075;-82
2022/10/24 02:13:07;;;;;;;60.15;30.90;;;19.80;99.90;;;;;;6341993;22;20439;-81
2022/10/24 02:15:39;;;;;;;62.63;32.22;;;19.70;99.90;;;;;;6369553;22;20006;-81
2022/10/24 02:18:05;;;;;;;65.63;31.42;;;19.70;99.90;;;;;;6341672;22;20093;-81
2022/10/24 02:20:41;;;;;;;49.45;28.45;;;19.60;99.90;;;;;;6369483;22;20011;-81
2022/10/24 02:23:21;;;;;;;68.93;30.55;;;19.70;99.90;;;;;;6369681;22;19998;-80
2022/10/24 02:25:51;;;;;;;59.45;31.00;;;19.70;99.90;;;;;;6369349;22;20051;-81
2022/10/24 02:28:21;;;;;;;40.53;23.60;;;19.70;99.90;;;;;;6368595;22;20021;-82
2022/10/24 02:30:54;;;;;;;50.00;26.35;;;19.70;99.90;;;;;;6368571;22;20009;-82
2022/10/24 02:33:22;;;;;;;41.70;25.40;;;19.70;99.90;;;;;;6367983;22;20002;-83
2022/10/24 02:35:48;;;;;;;50.75;26.20;;;19.80;99.90;;;;;;6369310;22;20003;-82
2022/10/24 02:38:21;;;;;;;45.75;25.33;;;19.80;99.90;;;;;;6369439;22;20002;-81
2022/10/24 02:40:48;;;;;;;51.63;26.58;;;19.90;99.90;;;;;;6369011;22;20012;-82
2022/10/24 02:43:21;;;;;;;45.35;25.95;;;19.90;99.90;;;;;;6368763;22;20010;-82
2022/10/24 02:45:49;;;;;;;48.25;26.95;;;19.90;99.90;;;;;;6340890;22;20037;-83
2022/10/24 02:48:19;;;;;;;40.72;23.33;;;20.00;99.90;;;;;;6368966;22;19998;-83
2022/10/24 02:50:45;;;;;;;39.90;24.75;;;20.00;99.90;;;;;;6341883;22;20041;-83
2022/10/24 02:53:18;;;;;;;51.00;28.73;;;20.00;99.90;;;;;;6342221;22;20051;-83
2022/10/24 02:55:44;;;;;;;57.75;28.88;;;20.00;99.90;;;;;;6369753;22;20081;-81
2022/10/24 02:58:09;;;;;;;54.53;28.00;;;20.00;99.90;;;;;;6368772;22;20006;-82
2022/10/24 03:00:35;;;;;;;50.78;26.98;;;19.90;99.90;;;;;;6369424;22;20006;-81
2022/10/24 03:03:01;;;;;;;51.50;25.52;;;19.90;99.90;;;;;;6370221;22;19994;-81
2022/10/24 03:05:27;;;;;;;58.80;30.42;;;20.00;99.90;;;;;;6371651;22;20077;-81
2022/10/24 03:07:52;;;;;;;61.33;28.98;;;20.00;99.90;;;;;;6343912;22;20009;-83
2022/10/24 03:10:18;;;;;;;62.80;31.02;;;19.90;99.90;;;;;;6371390;22;19999;-81
2022/10/24 03:12:44;;;;;;;62.80;30.90;;;19.90;99.90;;;;;;6370434;22;20002;-81
2022/10/24 03:15:10;;;;;;;69.72;30.23;;;19.90;99.90;;;;;;6370919;22;20404;-82
2022/10/24 03:17:35;;;;;;;61.40;31.80;;;19.80;99.90;;;;;;6371705;22;20063;-82
2022/10/24 03:20:01;;;;;;;52.72;29.33;;;19.80;99.90;;;;;;6371089;22;19998;-81
2022/10/24 03:22:27;;;;;;;64.38;32.80;;;19.80;99.90;;;;;;6372030;22;19999;-81
2022/10/24 03:24:53;;;;;;;57.10;31.35;;;19.70;99.90;;;;;;6370711;22;20033;-81
2022/10/24 03:27:21;;;;;;;47.05;25.50;;;19.70;99.90;;;;;;6371236;22;20297;-82
2022/10/24 03:29:47;;;;;;;59.63;28.65;;;19.80;99.90;;;;;;6371149;22;20077;-83
2022/10/24 03:32:14;;;;;;;55.38;28.98;;;19.80;99.90;;;;;;6343944;22;20113;-82
2022/10/24 03:34:40;;;;;;;71.50;31.35;;;19.80;99.90;;;;;;6370669;22;20073;-82
2022/10/24 03:37:05;;;;;;;56.10;28.95;;;19.70;99.90;;;;;;6371374;22;20015;-81
2022/10/24 03:39:31;;;;;;;69.90;30.98;;;19.70;99.90;;;;;;6370510;22;19998;-82
2022/10/24 03:41:57;;;;;;;62.13;30.75;;;19.70;99.90;;;;;;6371178;22;20324;-82
2022/10/24 03:44:23;;;;;;;56.65;28.75;;;19.70;99.90;;;;;;6341084;22;20010;-81
2022/10/24 03:46:48;;;;;;;62.85;29.95;;;19.70;99.90;;;;;;6370672;22;19994;-81
2022/10/24 03:49:14;;;;;;;49.50;25.48;;;19.70;99.90;;;;;;6370457;22;20002;-82
2022/10/24 03:51:39;;;;;;;62.05;28.30;;;19.70;99.90;;;;;;6371142;22;20005;-81
2022/10/24 03:54:05;;;;;;;57.75;29.67;;;19.70;99.90;;;;;;6370882;22;20013;-81
2022/10/24 03:56:31;;;;;;;48.33;24.67;;;19.70;99.90;;;;;;6370337;22;19994;-81
2022/10/24 03:58:56;;;;;;;68.85;29.40;;;19.70;99.90;;;;;;6370291;22;20006;-82
2022/10/24 04:01:23;;;;;;;70.35;30.88;;;19.70;99.90;;;;;;6371255;22;19994;-82
2022/10/24 04:03:49;;;;;;;71.90;32.00;;;19.70;99.90;;;;;;6370839;22;20361;-81
2022/10/24 04:06:14;;;;;;;48.55;28.35;;;19.70;99.90;;;;;;6370861;22;20002;-82
2022/10/24 04:08:40;;;;;;;66.38;30.33;;;19.60;99.90;;;;;;6369854;22;20396;-83
2022/10/24 04:11:06;;;;;;;48.45;27.35;;;19.70;99.90;;;;;;6342947;22;20483;-86
2022/10/24 04:13:32;;;;;;;61.63;27.58;;;19.70;99.90;;;;;;6371141;22;20027;-83
2022/10/24 04:15:58;;;;;;;63.70;27.45;;;19.70;99.90;;;;;;6343276;22;20010;-84
2022/10/24 04:18:24;;;;;;;61.65;30.95;;;19.70;99.90;;;;;;6371191;22;19998;-84
2022/10/24 04:20:49;;;;;;;63.13;28.98;;;19.70;99.90;;;;;;6370536;22;20002;-84
2022/10/24 04:23:15;;;;;;;52.83;28.02;;;19.70;99.90;;;;;;6370365;22;20378;-83
2022/10/24 04:25:41;;;;;;;71.47;30.65;;;19.70;99.90;;;;;;6343111;22;20468;-84
2022/10/24 04:28:07;;;;;;;72.70;29.67;;;19.70;99.90;;;;;;6370678;22;20332;-82
2022/10/24 04:30:33;;;;;;;50.85;27.77;;;19.70;99.90;;;;;;6370949;22;20005;-83
2022/10/24 04:32:58;;;;;;;60.28;28.83;;;19.70;99.90;;;;;;6370744;22;20032;-84
2022/10/24 04:35:25;;;;;;;70.47;31.17;;;19.70;99.90;;;;;;6370097;22;20324;-83
2022/10/24 04:37:51;;;;;;;72.82;30.98;;;19.70;99.90;;;;;;6342712;22;20041;-82
2022/10/24 04:40:17;;;;;;;54.70;27.90;;;19.70;99.90;;;;;;6369757;22;20006;-84
2022/10/24 04:42:42;;;;;;;72.05;30.83;;;19.70;99.90;;;;;;6370392;22;20003;-84
2022/10/24 04:45:09;;;;;;;73.97;31.02;;;19.70;99.90;;;;;;6369392;22;20002;-84
2022/10/24 04:47:34;;;;;;;84.82;32.25;;;19.60;99.90;;;;;;6370422;22;20034;-85
2022/10/24 04:50:00;;;;;;;91.85;35.10;;;19.60;99.90;;;;;;6369842;22;20115;-83
2022/10/24 04:52:26;;;;;;;85.70;34.47;;;19.50;99.90;;;;;;6370621;22;20424;-83
2022/10/24 04:54:52;;;;;;;64.55;30.85;;;19.50;99.90;;;;;;6341881;22;20002;-83
2022/10/24 04:57:18;;;;;;;60.15;24.90;;;19.50;99.90;;;;;;6370010;22;19999;-82
2022/10/24 04:59:43;;;;;;;68.38;30.70;;;19.60;99.90;;;;;;6370680;22;20014;-82
2022/10/24 05:02:09;;;;;;;87.30;35.03;;;19.60;99.90;;;;;;6369842;22;20073;-82
2022/10/24 05:04:35;;;;;;;64.25;30.27;;;19.50;99.90;;;;;;6342020;22;20401;-82
2022/10/24 05:07:01;;;;;;;75.90;31.58;;;19.60;99.90;;;;;;6369978;22;19998;-82
2022/10/24 05:09:26;;;;;;;69.80;30.10;;;19.50;99.90;;;;;;6369290;22;20002;-82
2022/10/24 05:11:56;;;;;;;65.75;26.60;;;19.60;99.90;;;;;;6369827;22;20051;-82
2022/10/24 05:14:22;;;;;;;65.07;26.75;;;19.60;99.90;;;;;;6341898;22;20055;-82
2022/10/24 05:16:48;;;;;;;79.00;30.40;;;19.70;99.90;;;;;;6370226;22;20012;-83
2022/10/24 05:19:15;;;;;;;66.45;26.88;;;19.70;99.90;;;;;;6369785;22;20069;-86
2022/10/24 05:21:41;;;;;;;74.75;28.83;;;19.60;99.90;;;;;;6369605;22;20476;-82
2022/10/24 05:24:07;;;;;;;66.75;28.38;;;19.70;99.90;;;;;;6369153;22;19998;-83
2022/10/24 05:26:36;;;;;;;61.97;25.42;;;19.70;99.90;;;;;;6369862;22;20002;-82
2022/10/24 05:29:01;;;;;;;70.28;26.45;;;19.70;99.90;;;;;;6368771;22;20037;-82
2022/10/24 05:34:22;;;;;;;70.43;28.98;;;19.70;99.90;;;;;;6308726;22;20006;-82
2022/10/24 05:36:48;;;;;;;64.35;27.60;;;19.70;99.90;;;;;;6369507;22;20438;-82
2022/10/24 05:39:14;;;;;;;60.00;27.80;;;19.70;99.90;;;;;;6368698;22;19994;-80
2022/10/24 05:41:40;;;;;;;75.32;29.63;;;19.70;99.90;;;;;;6368931;22;20013;-91
2022/10/24 05:44:05;;;;;;;81.78;29.05;;;19.70;99.90;;;;;;6368088;22;20010;-82
2022/10/24 05:46:31;;;;;;;83.03;31.58;;;19.70;99.90;;;;;;6368480;22;20366;-82
2022/10/24 05:48:57;;;;;;;71.65;28.95;;;19.70;99.90;;;;;;6368679;22;19998;-82
2022/10/24 05:51:22;;;;;;;52.05;25.05;;;19.70;99.90;;;;;;6368899;22;20013;-82
2022/10/24 05:53:48;;;;;;;64.78;27.85;;;19.70;99.90;;;;;;6366521;22;20286;-81
2022/10/24 05:56:14;;;;;;;66.93;28.70;;;19.80;99.90;;;;;;6367422;22;20003;-81
2022/10/24 05:58:39;;;;;;;56.03;27.00;;;19.70;99.90;;;;;;6367299;22;20329;-82
2022/10/24 06:01:05;;;;;;;51.65;24.73;;;19.70;99.90;;;;;;6366870;22;20032;-82
2022/10/24 06:03:31;;;;;;;50.20;22.77;;;19.80;99.90;;;;;;6339909;22;20056;-82
2022/10/24 06:05:56;;;;;;;45.20;24.17;;;19.80;99.90;;;;;;6368085;22;19999;-81
2022/10/24 06:08:23;;;;;;;48.88;23.75;;;19.90;99.90;;;;;;6369104;22;20021;-81
2022/10/24 06:10:50;;;;;;;59.90;26.48;;;19.90;99.90;;;;;;6369686;22;19999;-81
2022/10/24 06:13:16;;;;;;;47.03;23.20;;;19.90;99.90;;;;;;6369319;22;20014;-82
2022/10/24 06:15:43;;;;;;;51.42;25.10;;;20.00;99.90;;;;;;6369263;22;20412;-81
2022/10/24 06:18:09;;;;;;;37.00;21.50;;;20.00;99.90;;;;;;6369120;22;20002;-82
2022/10/24 06:20:36;;;;;;;42.55;22.45;;;20.00;99.90;;;;;;6368711;22;20397;-82
2022/10/24 06:23:02;;;;;;;41.20;21.50;;;20.00;99.90;;;;;;6369325;22;19998;-81
2022/10/24 06:25:27;;;;;;;39.90;22.42;;;20.10;99.90;;;;;;6369433;22;20079;-82
2022/10/24 06:27:53;;;;;;;46.45;22.40;;;20.00;99.90;;;;;;6369496;22;20028;-82
2022/10/24 06:30:19;;;;;;;38.67;21.67;;;20.10;99.90;;;;;;6368895;22;20008;-81
2022/10/24 06:32:44;;;;;;;48.35;22.85;;;20.10;99.90;;;;;;6367631;22;20071;-82
2022/10/24 06:35:13;;;;;;;49.88;22.83;;;20.20;99.90;;;;;;6368899;22;20369;-81
2022/10/24 06:37:39;;;;;;;37.88;21.77;;;20.20;99.90;;;;;;6368176;22;19998;-82
2022/10/24 06:40:06;;;;;;;43.20;21.50;;;20.20;99.90;;;;;;6370510;22;20009;-82
2022/10/24 06:42:31;;;;;;;34.58;20.38;;;20.20;99.90;;;;;;6344209;22;20051;-83
2022/10/24 06:44:58;;;;;;;38.47;22.77;;;20.30;99.90;;;;;;6371712;22;20002;-82
2022/10/24 06:47:24;;;;;;;40.28;21.95;;;20.30;99.90;;;;;;6343497;22;20002;-82
2022/10/24 06:49:49;;;;;;;59.05;25.25;;;20.20;99.90;;;;;;6371025;22;20346;-82
2022/10/24 06:52:15;;;;;;;40.20;21.88;;;20.20;99.90;;;;;;6371173;22;20006;-82
2022/10/24 06:54:42;;;;;;;41.13;21.80;;;20.30;99.90;;;;;;6343211;22;20112;-82
2022/10/24 06:57:08;;;;;;;35.75;20.90;;;20.30;99.90;;;;;;6342749;22;20059;-82
2022/10/24 06:59:34;;;;;;;36.72;21.65;;;20.30;99.90;;;;;;6343027;22;20382;-82
2022/10/24 07:01:59;;;;;;;41.47;21.42;;;20.40;99.90;;;;;;6370997;22;19998;-81
2022/10/24 07:04:25;;;;;;;36.28;21.27;;;20.40;99.90;;;;;;6371183;22;19999;-82
2022/10/24 07:06:51;;;;;;;43.60;23.45;;;20.50;99.90;;;;;;6372260;22;20371;-85
2022/10/24 07:09:17;;;;;;;33.88;19.00;;;20.50;99.90;;;;;;6371539;22;20321;-85
2022/10/24 07:11:43;;;;;;;42.92;21.00;;;20.50;99.90;;;;;;6371978;22;20005;-85
2022/10/24 07:14:10;;;;;;;41.25;21.05;;;20.60;99.90;;;;;;6372542;22;19998;-85
2022/10/24 07:16:36;;;;;;;38.63;21.25;;;20.60;99.90;;;;;;6370842;22;19994;-85
2022/10/24 07:19:03;;;;;;;30.20;18.45;;;20.60;99.90;;;;;;6370487;22;19999;-85
2022/10/24 07:21:30;;;;;;;34.03;21.00;;;20.70;99.90;;;;;;6371198;22;20070;-85
2022/10/24 07:23:57;;;;;;;42.22;19.85;;;20.70;99.90;;;;;;6371268;22;20397;-85
2022/10/24 07:26:24;;;;;;;56.35;22.55;;;20.70;99.90;;;;;;6371772;22;20073;-85
2022/10/24 07:28:54;;;;;;;98.38;29.85;;;20.80;99.90;;;;;;6371214;22;19999;-84
2022/10/24 07:31:21;;;;;;;;;;;20.80;99.90;;;;;;6371966;22;20038;-85
2022/10/24 07:33:47;;;;;;;50.88;23.02;;;20.80;99.90;;;;;;6370850;22;19905;-85
2022/10/24 07:36:18;;;;;;;49.22;22.35;;;20.90;99.90;;;;;;6371225;22;20030;-81
2022/10/24 07:38:45;;;;;;;41.10;20.33;;;20.90;99.90;;;;;;6370678;22;20051;-82
2022/10/24 07:41:11;;;;;;;32.15;18.98;;;20.90;99.90;;;;;;6371449;22;20010;-81
2022/10/24 07:43:36;;;;;;;30.50;18.52;;;21.00;99.90;;;;;;6370571;22;20451;-82
2022/10/24 07:46:07;;;;;;;30.27;20.92;;;21.00;99.90;;;;;;6370475;22;20024;-82
2022/10/24 07:48:33;;;;;;;31.30;20.50;;;21.00;99.90;;;;;;6368524;22;20108;-81
2022/10/24 07:50:59;;;;;;;33.72;22.30;;;21.00;99.90;;;;;;6369318;22;19999;-81
2022/10/24 07:53:26;;;;;;;43.92;22.40;;;21.00;99.90;;;;;;6369146;22;20014;-81
2022/10/24 07:55:53;;;;;;;35.47;19.08;;;21.10;99.90;;;;;;6371165;22;20036;-81
2022/10/24 07:58:19;;;;;;;34.78;19.92;;;21.10;99.90;;;;;;6373023;22;20008;-81
2022/10/24 08:00:46;;;;;;;27.35;17.50;;;21.10;99.90;;;;;;6365652;22;20106;-80
2022/10/24 08:03:12;;;;;;;34.42;17.55;;;21.20;99.90;;;;;;6371330;22;19999;-86
2022/10/24 08:05:41;;;;;;;28.25;17.83;;;21.20;99.90;;;;;;6370973;22;20326;-86
2022/10/24 08:08:07;;;;;;;25.55;16.08;;;21.20;99.90;;;;;;6372117;22;20022;-85
2022/10/24 08:10:33;;;;;;;25.40;15.88;;;21.30;99.90;;;;;;6371998;22;19998;-86
2022/10/24 08:12:58;;;;;;;21.20;14.20;;;21.30;99.90;;;;;;6371552;22;20081;-86
2022/10/24 08:15:26;;;;;;;27.85;16.17;;;21.40;99.90;;;;;;6371421;22;20029;-85
2022/10/24 08:17:53;;;;;;;23.77;16.77;;;21.50;99.90;;;;;;6369829;22;19998;-86
2022/10/24 08:20:20;;;;;;;27.60;16.40;;;21.60;99.90;;;;;;6371294;22;20083;-85
2022/10/24 08:22:46;;;;;;;24.00;15.45;;;21.60;99.70;;;;;;6370865;22;20420;-85
2022/10/24 08:25:13;;;;;;;27.17;15.38;;;21.70;99.60;;;;;;6371024;22;20044;-84
2022/10/24 08:27:42;;;;;;;23.92;14.98;;;21.70;99.50;;;;;;6371195;22;20006;-86
2022/10/24 08:30:08;;;;;;;26.75;15.10;;;21.80;99.10;;;;;;6370460;22;20029;-85
2022/10/24 08:32:35;;;;;;;24.08;15.63;;;21.80;98.90;;;;;;6373622;22;20012;-85
2022/10/24 08:35:00;;;;;;;22.85;14.35;;;21.90;99.00;;;;;;6370834;22;20009;-85
2022/10/24 08:37:26;;;;;;;21.90;13.95;;;22.00;99.00;;;;;;6371439;22;20298;-84
2022/10/24 08:39:55;;;;;;;24.85;15.45;;;22.20;98.80;;;;;;6370964;22;20002;-85
2022/10/24 08:42:23;;;;;;;27.90;15.73;;;22.30;98.30;;;;;;6370739;22;20022;-85
2022/10/24 08:44:51;;;;;;;21.10;14.68;;;22.50;97.50;;;;;;6342095;22;20030;-84
2022/10/24 08:47:30;;;;;;;21.00;14.98;;;22.60;97.30;;;;;;6371216;22;20005;-85
2022/10/24 08:50:19;;;;;;;24.60;15.60;;;22.60;97.00;;;;;;6371009;22;20002;-86
2022/10/24 08:53:13;;;;;;;22.90;13.50;;;22.70;96.60;;;;;;6370663;22;20002;-86
2022/10/24 08:55:54;;;;;;;22.08;14.35;;;22.80;96.80;;;;;;6366496;22;20482;-85
2022/10/24 08:58:24;;;;;;;23.77;15.77;;;22.80;96.40;;;;;;6313662;22;20006;-85
2022/10/24 09:00:51;;;;;;;23.80;15.30;;;22.90;96.30;;;;;;6369935;22;20007;-85
2022/10/24 09:03:39;;;;;;;26.70;15.48;;;22.90;96.30;;;;;;6341867;22;19998;-85
2022/10/24 09:06:11;;;;;;;22.63;14.38;;;23.10;96.50;;;;;;6370292;22;20002;-85
2022/10/24 09:08:57;;;;;;;23.42;13.98;;;23.20;96.00;;;;;;6370388;22;20005;-86
2022/10/24 09:11:38;;;;;;;24.83;15.90;;;23.30;95.70;;;;;;6370864;22;20030;-86
2022/10/24 09:14:16;;;;;;;22.88;13.73;;;23.30;95.00;;;;;;6370608;22;20005;-85
2022/10/24 09:16:44;;;;;;;25.95;14.23;;;23.30;95.00;;;;;;6342555;22;20031;-83
2022/10/24 09:19:16;;;;;;;28.17;15.27;;;23.50;95.30;;;;;;6369879;22;20003;-84
2022/10/24 09:21:43;;;;;;;32.08;14.32;;;23.50;94.60;;;;;;6370581;22;20004;-84
2022/10/24 09:24:44;;;;;;;21.83;12.25;;;23.50;95.00;;;;;;6342521;22;19999;-84
2022/10/24 09:27:22;;;;;;;21.48;13.07;;;23.60;94.70;;;;;;6370642;22;20045;-87
2022/10/24 09:29:50;;;;;;;19.48;12.95;;;23.50;94.50;;;;;;6368094;22;20052;-89
2022/10/24 09:32:19;;;;;;;17.80;12.15;;;23.70;94.40;;;;;;6367755;22;20188;-89
2022/10/24 09:34:45;;;;;;;27.35;14.07;;;23.80;94.00;;;;;;6370479;22;20050;-88
2022/10/24 09:37:44;;;;;;;22.67;12.38;;;23.90;93.30;;;;;;6370551;22;20034;-88
2022/10/24 09:40:16;;;;;;;21.90;11.57;;;24.20;93.50;;;;;;6303172;22;20026;-87
2022/10/24 09:43:12;;;;;;;19.65;11.93;;;24.40;93.50;;;;;;6370837;22;19999;-88
2022/10/24 09:45:44;;;;;;;47.17;20.77;;;24.60;92.70;;;;;;6373795;22;20032;-88
2022/10/24 09:48:28;;;;;;;30.05;13.82;;;24.80;91.20;;;;;;6377286;22;20030;-87
2022/10/24 09:50:54;;;;;;;29.65;14.95;;;24.90;91.70;;;;;;6369974;22;20071;-88
2022/10/24 09:53:39;;;;;;;18.08;11.43;;;24.80;90.50;;;;;;6341886;22;20002;-88
2022/10/24 09:56:14;;;;;;;19.10;12.80;;;24.70;91.00;;;;;;6370169;22;20033;-87
2022/10/24 09:58:41;;;;;;;22.20;11.48;;;24.80;90.70;;;;;;6370894;22;20032;-87
2022/10/24 10:01:19;;;;;;;19.42;11.02;;;24.80;91.00;;;;;;6342473;22;20458;-87
2022/10/24 10:04:04;;;;;;;25.63;12.15;;;24.90;90.90;;;;;;6371007;22;20000;-86
2022/10/24 10:06:32;;;;;;;22.40;11.15;;;24.90;90.40;;;;;;6370073;22;20026;-85
2022/10/24 10:08:58;;;;;;;23.52;11.77;;;24.80;90.70;;;;;;6340582;22;20002;-90
2022/10/24 10:11:30;;;;;;;26.00;12.25;;;24.90;90.60;;;;;;6342444;22;20025;-86
2022/10/24 10:14:00;;;;;;;26.58;12.93;;;25.00;90.80;;;;;;6369487;22;20009;-86
2022/10/24 10:16:58;;;;;;;32.53;14.97;;;25.00;90.30;;;;;;6369685;22;20032;-85
2022/10/24 10:19:24;;;;;;;23.90;13.43;;;25.00;89.60;;;;;;6325078;22;20672;-86
2022/10/24 10:21:56;;;;;;;25.20;13.63;;;25.00;90.30;;;;;;6367613;22;19999;-85
2022/10/24 10:24:40;;;;;;;21.65;11.68;;;24.90;90.10;;;;;;6369565;22;19999;-86
2022/10/24 10:27:25;;;;;;;17.40;11.05;;;24.90;90.30;;;;;;6368937;22;20367;-86
2022/10/24 10:30:09;;;;;;;24.02;13.57;;;24.90;90.30;;;;;;6368376;22;20514;-84
2022/10/24 10:32:49;;;;;;;24.13;12.13;;;25.00;90.10;;;;;;6340978;22;20089;-83
2022/10/24 10:35:18;;;;;;;;;;;25.10;89.40;;;;;;6369443;22;20002;-84
2022/10/24 10:38:08;;;;;;;23.65;10.82;;;25.20;89.90;;;;;;6341096;22;19944;-83
2022/10/24 10:40:45;;;;;;;20.75;11.38;;;25.30;89.10;;;;;;6369247;22;20002;-84
2022/10/24 10:43:44;;;;;;;18.95;10.57;;;25.40;88.90;;;;;;6369709;22;20029;-84
2022/10/24 10:46:15;;;;;;;20.92;10.60;;;25.50;88.80;;;;;;6369506;22;20024;-83
2022/10/24 10:48:58;;;;;;;18.90;10.27;;;25.70;87.90;;;;;;6341220;22;19998;-83
2022/10/24 10:51:34;;;;;;;31.13;13.90;;;25.80;87.20;;;;;;6369092;22;20070;-81
2022/10/24 10:54:49;;;;;;;20.13;11.38;;;25.80;85.90;;;;;;6368634;22;20006;-83
2022/10/24 10:57:32;;;;;;;35.28;15.57;;;25.80;86.50;;;;;;6368891;22;20065;-83
2022/10/24 11:00:11;;;;;;;23.90;10.77;;;25.60;85.30;;;;;;6368779;22;20033;-83
2022/10/24 11:03:07;;;;;;;21.90;11.65;;;25.60;86.00;;;;;;6369236;22;20040;-84
2022/10/24 11:05:45;;;;;;;18.85;12.23;;;25.50;86.90;;;;;;6370144;22;19999;-84
2022/10/24 11:11:23;;;;;;;26.05;12.70;;;25.60;86.50;;;;;;6349141;22;20371;-86
2022/10/24 11:14:26;;;;;;;17.13;10.93;;;25.60;83.20;;;;;;6306885;22;20015;-82
2022/10/24 11:16:56;;;;;;;18.73;10.07;;;25.50;84.50;;;;;;6255886;22;20050;-85
2022/10/24 11:19:42;;;;;;;;;;;25.50;84.90;;;;;;6308209;22;20078;-85
2022/10/24 11:22:21;;;;;;;20.58;10.82;;;25.40;84.50;;;;;;6306335;22;19899;-84
2022/10/24 11:24:55;;;;;;;23.77;10.83;;;25.40;85.30;;;;;;6306765;22;20333;-81
2022/10/24 11:27:27;;;;;;;17.83;10.02;;;25.30;83.80;;;;;;6280640;22;20539;-81
2022/10/24 11:30:15;;;;;;;14.45;8.45;;;25.40;84.30;;;;;;6307815;22;19999;-82
2022/10/24 11:33:10;;;;;;;17.98;9.25;;;25.30;83.50;;;;;;6281097;22;20326;-82
2022/10/24 11:35:43;;;;;;;21.55;11.35;;;25.30;84.20;;;;;;6281769;22;20003;-82
2022/10/24 11:38:21;;;;;;;23.30;11.07;;;25.30;84.50;;;;;;6308025;22;20366;-82
2022/10/24 11:40:57;;;;;;;23.13;11.85;;;25.30;84.80;;;;;;6307887;22;20003;-82
2022/10/24 11:43:39;;;;;;;23.65;12.05;;;25.30;84.80;;;;;;6280681;22;20295;-82
2022/10/24 11:46:15;;;;;;;18.75;11.20;;;25.40;83.60;;;;;;6281764;22;19999;-87
2022/10/24 11:49:16;;;;;;;16.33;10.68;;;25.50;84.00;;;;;;6308880;22;19999;-86
2022/10/24 11:51:50;;;;;;;25.60;12.05;;;25.70;83.80;;;;;;6278735;22;19999;-85
2022/10/24 11:54:31;;;;;;;20.02;11.30;;;26.00;82.70;;;;;;6307528;22;20413;-81
2022/10/24 11:57:07;;;;;;;18.83;11.45;;;26.50;82.00;;;;;;6308186;22;21016;-86
2022/10/24 11:59:33;;;;;;;19.73;11.43;;;27.00;79.40;;;;;;6309139;22;20003;-84
2022/10/24 12:02:43;;;;;;;24.05;11.30;;;27.40;77.40;;;;;;6309008;22;20002;-85
2022/10/24 12:05:27;;;;;;;24.52;10.25;;;27.80;75.40;;;;;;6307395;22;19999;-84
2022/10/24 12:08:11;;;;;;;18.58;10.77;;;28.20;74.40;;;;;;6308600;22;19999;-85
2022/10/24 12:11:10;;;;;;;17.30;10.77;;;28.60;73.50;;;;;;6308053;22;19999;-82
2022/10/24 12:14:15;;;;;;;15.27;9.82;;;28.70;71.70;;;;;;6233435;22;20504;-81
2022/10/24 12:16:50;;;;;;;21.40;9.00;;;28.90;69.80;;;;;;6307291;22;20004;-82
2022/10/24 12:19:19;;;;;;;18.50;9.95;;;28.80;70.00;;;;;;6307987;22;20026;-81
2022/10/24 12:21:50;;;;;;;17.38;9.30;;;28.60;70.50;;;;;;6308619;22;19999;-82
2022/10/24 12:24:37;;;;;;;16.92;8.98;;;28.70;70.20;;;;;;6308297;22;20014;-82
2022/10/24 12:27:25;;;;;;;19.13;9.07;;;28.80;69.30;;;;;;6308397;22;19991;-82
2022/10/24 12:30:15;;;;;;;18.58;10.00;;;28.90;69.20;;;;;;6280698;22;20029;-82
2022/10/24 12:33:03;;;;;;;22.10;10.25;;;29.00;69.00;;;;;;6308171;22;20003;-81
2022/10/24 12:35:34;;;;;;;15.80;9.13;;;29.10;69.90;;;;;;6291921;22;20326;-82
2022/10/24 12:38:12;;;;;;;20.27;10.05;;;29.20;69.60;;;;;;6280006;22;20007;-82
2022/10/24 12:40:44;;;;;;;30.45;10.32;;;29.10;69.50;;;;;;6307896;22;20463;-81
2022/10/24 12:43:41;;;;;;;20.17;10.48;;;28.80;71.00;;;;;;6308077;22;19999;-82
2022/10/24 12:46:18;;;;;;;25.63;10.15;;;28.50;72.90;;;;;;6307602;22;19996;-82
2022/10/24 12:48:50;;;;;;;16.70;8.93;;;28.30;73.70;;;;;;6307694;22;20354;-82
2022/10/24 12:51:29;;;;;;;21.55;11.40;;;28.20;73.90;;;;;;6307339;22;20030;-82
2022/10/24 12:54:14;;;;;;;18.85;10.68;;;28.30;73.10;;;;;;6307875;22;20056;-82
2022/10/24 12:56:48;;;;;;;18.33;10.23;;;28.00;74.40;;;;;;6308019;22;20006;-81